createdAt,value
2022-10-03T00:02:02.676Z,100.00
2022-10-03T00:07:29.552Z,100.00
2022-10-03T00:13:02.264Z,100.00
2022-10-03T00:18:39.808Z,100.00
2022-10-03T00:23:44.202Z,100.00
2022-10-03T00:29:03.706Z,100.00
2022-10-03T00:34:16.974Z,100.00
2022-10-03T00:39:54.540Z,100.00
2022-10-03T00:45:21.740Z,100.00
2022-10-03T00:50:26.819Z,100.00
2022-10-03T00:55:50.653Z,100.00
2022-10-03T01:00:52.550Z,100.00
2022-10-03T01:06:35.211Z,100.00
2022-10-03T01:12:08.483Z,100.00
2022-10-03T01:17:37.316Z,100.00
2022-10-03T01:23:02.518Z,100.00
2022-10-03T01:28:58.375Z,100.00
2022-10-03T01:34:11.542Z,100.00
2022-10-03T01:39:21.768Z,100.00
2022-10-03T01:44:29.221Z,100.00
2022-10-03T01:49:44.853Z,100.00
2022-10-03T01:54:57.047Z,100.00
2022-10-03T02:00:10.333Z,100.00
2022-10-03T02:05:39.087Z,100.00
2022-10-03T02:11:08.329Z,100.00
2022-10-03T02:16:47.669Z,100.00
2022-10-03T02:21:53.851Z,100.00
2022-10-03T02:27:13.749Z,100.00
2022-10-03T02:32:34.095Z,100.00
2022-10-03T02:37:59.946Z,100.00
2022-10-03T02:43:22.491Z,100.00
2022-10-03T02:48:57.130Z,100.00
2022-10-03T02:54:17.666Z,100.00
2022-10-03T02:59:54.498Z,100.00
2022-10-03T03:05:28.786Z,100.00
2022-10-03T03:10:45.138Z,100.00
2022-10-03T03:16:03.873Z,100.00
2022-10-03T03:21:16.879Z,100.00
2022-10-03T03:26:59.758Z,100.00
2022-10-03T03:32:38.995Z,100.00
2022-10-03T03:37:48.639Z,100.00
2022-10-03T03:43:08.810Z,100.00
2022-10-03T03:48:40.202Z,100.00
2022-10-03T03:53:45.885Z,100.00
2022-10-03T03:59:22.031Z,100.00
2022-10-03T04:04:49.867Z,100.00
2022-10-03T04:10:01.735Z,100.00
2022-10-03T04:15:09.793Z,100.00
2022-10-03T04:20:58.951Z,100.00
2022-10-03T04:26:15.802Z,100.00
2022-10-03T04:31:43.841Z,100.00
2022-10-03T04:36:57.186Z,100.00
2022-10-03T04:42:30.700Z,100.00
2022-10-03T04:47:51.131Z,100.00
2022-10-03T04:53:07.906Z,100.00
2022-10-03T04:58:26.701Z,100.00
2022-10-03T05:03:49.888Z,100.00
2022-10-03T05:08:59.561Z,100.00
2022-10-03T05:14:29.065Z,100.00
2022-10-03T05:19:41.569Z,100.00
2022-10-03T05:24:57.439Z,100.00
2022-10-03T05:30:25.786Z,100.00
2022-10-03T05:35:31.937Z,100.00
2022-10-03T05:40:34.337Z,100.00
2022-10-03T05:45:45.136Z,100.00
2022-10-03T05:51:23.183Z,100.00
2022-10-03T05:56:45.448Z,100.00
2022-10-03T06:02:12.012Z,100.00
2022-10-03T06:07:26.999Z,100.00
2022-10-03T06:12:40.368Z,100.00
2022-10-03T06:17:54.071Z,100.00
2022-10-03T06:23:20.172Z,100.00
2022-10-03T06:28:28.548Z,100.00
2022-10-03T06:33:58.622Z,100.00
2022-10-03T06:39:31.380Z,100.00
2022-10-03T06:44:47.006Z,100.00
2022-10-03T06:49:57.596Z,100.00
2022-10-03T06:55:33.099Z,100.00
2022-10-03T07:00:41.051Z,100.00
2022-10-03T07:06:07.885Z,100.00
2022-10-03T07:11:32.542Z,100.00
2022-10-03T07:17:00.309Z,100.00
2022-10-03T07:22:26.826Z,100.00
2022-10-03T07:27:38.581Z,100.00
2022-10-03T07:32:58.867Z,100.00
2022-10-03T07:38:47.100Z,100.00
2022-10-03T07:44:04.032Z,100.00
2022-10-03T07:49:41.267Z,100.00
2022-10-03T07:54:47.435Z,100.00
2022-10-03T08:00:05.787Z,100.00
2022-10-03T08:05:19.763Z,100.00
2022-10-03T08:10:32.316Z,100.00
2022-10-03T08:15:49.487Z,100.00
2022-10-03T08:20:59.062Z,100.00
2022-10-03T08:26:20.623Z,100.00
2022-10-03T08:32:03.850Z,100.00
2022-10-03T08:37:36.358Z,100.00
2022-10-03T08:43:18.127Z,100.00
2022-10-03T08:48:31.812Z,100.00
2022-10-03T08:53:54.387Z,100.00
2022-10-03T08:59:13.771Z,100.00
2022-10-03T09:04:29.541Z,100.00
2022-10-03T09:09:53.065Z,100.00
2022-10-03T09:14:54.670Z,100.00
2022-10-03T09:20:08.319Z,100.00
2022-10-03T09:25:21.941Z,100.00
2022-10-03T09:31:03.987Z,100.00
2022-10-03T09:36:14.204Z,98.61
2022-10-03T09:41:25.541Z,97.60
2022-10-03T09:46:41.882Z,96.79
2022-10-03T09:52:10.095Z,96.96
2022-10-03T09:57:22.762Z,98.41
2022-10-03T10:02:50.875Z,98.80
2022-10-03T10:08:01.745Z,100.00
2022-10-03T10:13:12.551Z,100.00
2022-10-03T10:18:39.941Z,100.00
2022-10-03T10:24:09.393Z,100.00
2022-10-03T10:29:26.555Z,100.00
2022-10-03T10:35:09.979Z,100.00
2022-10-03T10:40:36.565Z,100.00
2022-10-03T10:45:53.256Z,100.00
2022-10-03T10:51:31.992Z,100.00
2022-10-03T10:57:12.092Z,100.00
2022-10-03T11:02:35.645Z,100.00
2022-10-03T11:08:03.414Z,100.00
2022-10-03T11:13:14.046Z,99.68
2022-10-03T11:18:46.849Z,96.26
2022-10-03T11:24:27.668Z,95.85
2022-10-03T11:29:53.924Z,95.75
2022-10-03T11:35:29.389Z,94.71
2022-10-03T11:40:55.836Z,93.23
2022-10-03T11:46:34.406Z,98.16
2022-10-03T11:51:52.837Z,100.00
2022-10-03T11:57:02.611Z,100.00
2022-10-03T12:02:28.509Z,100.00
2022-10-03T12:08:26.150Z,100.00
2022-10-03T12:14:11.521Z,97.79
2022-10-03T12:19:41.051Z,91.30
2022-10-03T12:24:43.580Z,87.77
2022-10-03T12:29:52.222Z,85.49
2022-10-03T12:34:53.779Z,82.21
2022-10-03T12:40:06.315Z,81.37
2022-10-03T12:45:29.458Z,79.76
2022-10-03T12:51:13.029Z,77.67
2022-10-03T12:56:26.706Z,80.10
2022-10-03T13:01:52.238Z,84.04
2022-10-03T13:07:08.960Z,86.15
2022-10-03T13:12:40.847Z,86.04
2022-10-03T13:17:54.000Z,87.08
2022-10-03T13:23:25.407Z,86.93
2022-10-03T13:28:37.510Z,84.32
2022-10-03T13:33:45.004Z,80.46
2022-10-03T13:39:11.718Z,79.67
2022-10-03T13:44:43.990Z,76.72
2022-10-03T13:49:58.744Z,79.41
2022-10-03T13:55:13.174Z,80.12
2022-10-03T14:00:16.072Z,81.34
2022-10-03T14:05:25.362Z,85.36
2022-10-03T14:10:48.977Z,90.25
2022-10-03T14:15:59.955Z,94.79
2022-10-03T14:21:20.542Z,97.31
2022-10-03T14:26:29.767Z,98.09
2022-10-03T14:31:35.661Z,98.75
2022-10-03T14:36:45.916Z,98.45
2022-10-03T14:42:25.291Z,99.16
2022-10-03T14:47:27.155Z,99.67
2022-10-03T14:52:48.845Z,99.32
2022-10-03T14:58:10.389Z,100.00
2022-10-03T15:03:16.107Z,100.00
2022-10-03T15:08:17.856Z,100.00
2022-10-03T15:13:19.704Z,100.00
2022-10-03T15:18:23.037Z,100.00
2022-10-03T15:23:33.240Z,100.00
2022-10-03T15:28:55.292Z,100.00
2022-10-03T15:33:56.937Z,100.00
2022-10-03T15:39:00.601Z,100.00
2022-10-03T15:44:32.928Z,100.00
2022-10-03T15:50:07.069Z,100.00
2022-10-03T15:55:22.710Z,100.00
2022-10-03T16:00:31.458Z,100.00
2022-10-03T16:05:33.182Z,100.00
2022-10-03T16:10:38.203Z,100.00
2022-10-03T16:16:04.105Z,100.00
2022-10-03T16:21:05.833Z,100.00
2022-10-03T16:26:11.353Z,100.00
2022-10-03T16:31:25.208Z,100.00
2022-10-03T16:36:26.922Z,100.00
2022-10-03T16:41:31.773Z,100.00
2022-10-03T16:46:36.552Z,100.00
2022-10-03T16:51:42.874Z,100.00
2022-10-03T16:56:47.528Z,100.00
2022-10-03T17:02:05.100Z,100.00
2022-10-03T17:07:14.459Z,100.00
2022-10-03T17:12:24.994Z,100.00
2022-10-03T17:17:34.756Z,100.00
2022-10-03T17:22:44.573Z,100.00
2022-10-03T17:27:48.965Z,100.00
2022-10-03T17:32:53.748Z,100.00
2022-10-03T17:38:48.802Z,100.00
2022-10-03T17:43:47.809Z,100.00
2022-10-03T17:48:54.981Z,100.00
2022-10-03T17:53:58.038Z,100.00
2022-10-03T17:59:23.017Z,100.00
2022-10-03T18:04:34.769Z,100.00
2022-10-03T18:09:45.573Z,100.00
2022-10-03T18:14:57.504Z,100.00
2022-10-03T18:20:13.530Z,100.00
2022-10-03T18:26:08.366Z,100.00
2022-10-03T18:31:20.339Z,100.00
2022-10-03T18:36:36.894Z,100.00
2022-10-03T18:41:46.720Z,100.00
2022-10-03T18:46:52.811Z,100.00
2022-10-03T18:52:03.531Z,100.00
2022-10-03T18:57:22.224Z,100.00
2022-10-03T19:02:44.390Z,100.00
2022-10-03T19:07:51.395Z,100.00
2022-10-03T19:13:29.734Z,100.00
2022-10-03T19:18:43.807Z,100.00
2022-10-03T19:24:02.378Z,100.00
2022-10-03T19:29:23.107Z,100.00
2022-10-03T19:34:39.415Z,100.00
2022-10-03T19:39:41.100Z,100.00
2022-10-03T19:44:44.224Z,100.00
2022-10-03T19:50:05.559Z,100.00
2022-10-03T19:55:24.812Z,100.00
2022-10-03T20:00:31.279Z,100.00
2022-10-03T20:05:37.691Z,100.00
2022-10-03T20:10:41.717Z,100.00
2022-10-03T20:15:45.410Z,100.00
2022-10-03T20:20:48.949Z,100.00
2022-10-03T20:25:54.800Z,100.00
2022-10-03T20:30:56.568Z,100.00
2022-10-03T20:35:59.295Z,100.00
2022-10-03T20:41:39.302Z,100.00
2022-10-03T20:47:08.050Z,100.00
2022-10-03T20:52:18.611Z,100.00
2022-10-03T20:57:42.750Z,100.00
2022-10-03T21:02:48.969Z,100.00
2022-10-03T21:07:57.265Z,100.00
2022-10-03T21:13:29.324Z,100.00
2022-10-03T21:18:36.099Z,100.00
2022-10-03T21:23:46.559Z,100.00
2022-10-03T21:28:48.307Z,100.00
2022-10-03T21:33:56.537Z,100.00
2022-10-03T21:39:03.472Z,100.00
2022-10-03T21:44:11.011Z,100.00
2022-10-03T21:49:48.003Z,100.00
2022-10-03T21:55:15.947Z,100.00
2022-10-03T22:00:18.528Z,100.00
2022-10-03T22:05:32.297Z,100.00
2022-10-03T22:10:36.300Z,100.00
2022-10-03T22:15:52.570Z,100.00
2022-10-03T22:20:58.680Z,100.00
2022-10-03T22:26:17.468Z,100.00
2022-10-03T22:31:38.429Z,100.00
2022-10-03T22:36:40.401Z,100.00
2022-10-03T22:41:43.931Z,100.00
2022-10-03T22:46:47.234Z,100.00
2022-10-03T22:51:50.188Z,100.00
2022-10-03T22:56:55.301Z,100.00
2022-10-03T23:01:59.090Z,100.00
2022-10-03T23:07:08.276Z,100.00
2022-10-03T23:12:10.361Z,100.00
2022-10-03T23:17:36.336Z,100.00
2022-10-03T23:22:38.040Z,100.00
2022-10-03T23:27:58.486Z,100.00
2022-10-03T23:33:00.498Z,100.00
2022-10-03T23:38:02.158Z,100.00
2022-10-03T23:43:06.154Z,100.00
2022-10-03T23:48:10.488Z,100.00
2022-10-03T23:53:27.424Z,100.00
2022-10-03T23:58:30.975Z,100.00
